Rio Quente, Brazil
Current Conditions -  °F | °C
As of 4:00 AM on Thursday 23 Oct 2014 (Local Time) from SBGO Reporting Station
Scattered Clouds Scattered Clouds  
Wind Chill: 70°   Ceiling: Unl
Heat Index: 70°   Visibility: 6mi
Dew Point: 61°   Wind: 0mph
Humidity: 73%   Direction: NA
Pressure: 30.03"   Gusts: NA
Location:  17.77°S, 48.77°W
Report Text: SBGO 230600Z 00000KT 9999 FEW035 SCT080 21/16 Q1017
Loading
Personal Weather Stations






























Interactive Weather Map
Tropical Storm Tracking
New forecast layout! Learn more

10-Day Weather Forecast

Advertisements
Track Severe Weather on mobile